Time;durP1;ratioP1;P1;durP2;ratioP2;P2;SDS_P1;SDS_P2;PMS_P1;PMS_P2;Temp;Humidity;BMP_temperature;BMP_pressure;BME280_temperature;BME280_humidity;BME280_pressure;Samples;Min_cycle;Max_cycle;Signal;HPM_P1;HPM_P2
2021/01/27 00:02:22;;;;;;;7.30;5.73;;;3.10;99.90;;;;;;5095295;28;20971;-77
2021/01/27 00:04:48;;;;;;;8.63;5.60;;;3.10;99.90;;;;;;5095779;28;20455;-77
2021/01/27 00:07:15;;;;;;;8.83;5.70;;;3.20;99.90;;;;;;5095785;28;20501;-77
2021/01/27 00:09:44;;;;;;;8.80;6.00;;;3.20;99.90;;;;;;5095508;28;20517;-77
2021/01/27 00:12:11;;;;;;;9.23;6.27;;;3.10;99.90;;;;;;5103936;28;20441;-78
2021/01/27 00:14:37;;;;;;;7.67;5.33;;;3.10;99.90;;;;;;5115729;28;20541;-77
2021/01/27 00:17:03;;;;;;;7.47;4.97;;;3.00;99.90;;;;;;5115840;28;20498;-77
2021/01/27 00:19:30;;;;;;;14.27;6.23;;;3.00;99.90;;;;;;5115701;28;20481;-77
2021/01/27 00:21:57;;;;;;;9.83;5.40;;;3.00;99.90;;;;;;5115367;28;20480;-77
2021/01/27 00:24:23;;;;;;;10.27;4.63;;;3.00;99.90;;;;;;5115533;28;20441;-77
2021/01/27 00:26:50;;;;;;;8.10;5.03;;;3.00;99.90;;;;;;5115453;28;20546;-76
2021/01/27 00:29:17;;;;;;;7.30;4.63;;;3.00;99.90;;;;;;5114710;28;20452;-77
2021/01/27 00:31:44;;;;;;;10.00;4.90;;;3.00;99.90;;;;;;5115885;28;20503;-78
2021/01/27 00:34:12;;;;;;;5.57;4.67;;;2.90;99.90;;;;;;5115503;28;20453;-76
2021/01/27 00:36:38;;;;;;;12.23;4.90;;;2.90;99.90;;;;;;5115522;28;20434;-76
2021/01/27 00:39:05;;;;;;;7.73;5.17;;;2.90;99.90;;;;;;5100984;28;20481;-76
2021/01/27 00:41:31;;;;;;;7.33;4.43;;;2.80;99.90;;;;;;5094420;28;20460;-76
2021/01/27 00:43:58;;;;;;;7.80;5.13;;;2.90;99.90;;;;;;5094422;28;20497;-76
2021/01/27 00:46:25;;;;;;;8.77;4.80;;;3.00;99.90;;;;;;5094352;28;20449;-76
2021/01/27 00:48:51;;;;;;;7.97;4.60;;;3.00;99.90;;;;;;5112280;28;20806;-76
2021/01/27 00:51:17;;;;;;;5.20;4.23;;;2.90;99.90;;;;;;5116025;28;20486;-76
2021/01/27 00:53:44;;;;;;;7.37;5.17;;;3.00;99.90;;;;;;5119456;28;20440;-76
2021/01/27 00:56:10;;;;;;;7.90;4.70;;;3.00;99.90;;;;;;5119210;28;20527;-77
2021/01/27 00:58:36;;;;;;;9.63;5.60;;;3.00;99.90;;;;;;5119083;28;20431;-77
2021/01/27 01:01:04;;;;;;;7.17;4.43;;;2.90;99.90;;;;;;5118861;28;20542;-76
2021/01/27 01:03:30;;;;;;;8.50;5.10;;;2.90;99.90;;;;;;5117338;28;20506;-76
2021/01/27 01:05:57;;;;;;;5.43;4.60;;;2.90;99.90;;;;;;5118408;28;20474;-76
2021/01/27 01:08:23;;;;;;;7.43;4.10;;;2.90;99.90;;;;;;5118522;28;20445;-76
2021/01/27 01:10:53;;;;;;;7.47;4.80;;;2.90;99.90;;;;;;5118597;28;20459;-76
2021/01/27 01:13:22;;;;;;;6.90;4.43;;;2.90;99.90;;;;;;5118529;28;20469;-85
2021/01/27 01:15:49;;;;;;;6.57;4.07;;;3.00;99.90;;;;;;5118518;28;20420;-77
2021/01/27 01:18:17;;;;;;;7.57;4.30;;;3.00;99.90;;;;;;5119416;28;20461;-77
2021/01/27 01:20:44;;;;;;;9.10;4.43;;;2.90;99.90;;;;;;5117927;28;20433;-77
2021/01/27 01:23:11;;;;;;;5.93;4.70;;;2.90;99.90;;;;;;5118358;28;20478;-76
2021/01/27 01:25:38;;;;;;;6.00;4.03;;;2.80;99.90;;;;;;5118382;28;20475;-77
2021/01/27 01:28:06;;;;;;;6.47;4.40;;;2.80;99.90;;;;;;5118113;28;20454;-77
2021/01/27 01:30:34;;;;;;;7.77;4.77;;;2.90;99.90;;;;;;5119123;28;20861;-76
2021/01/27 01:33:03;;;;;;;5.97;4.43;;;2.80;99.90;;;;;;5118334;28;20454;-77
2021/01/27 01:35:31;;;;;;;8.00;3.80;;;2.80;99.90;;;;;;5118230;28;20476;-77
2021/01/27 01:37:57;;;;;;;5.13;3.70;;;2.90;99.90;;;;;;5118564;28;20541;-77
2021/01/27 01:40:26;;;;;;;5.53;4.20;;;2.80;99.90;;;;;;5118066;28;20555;-76
2021/01/27 01:43:10;;;;;;;5.97;3.70;;;2.90;99.90;;;;;;5118244;28;20506;-79
2021/01/27 01:45:39;;;;;;;7.37;3.73;;;3.00;99.90;;;;;;5117899;28;20523;-78
2021/01/27 01:48:24;;;;;;;7.83;4.40;;;3.10;99.90;;;;;;5118107;28;20504;-78
2021/01/27 01:51:08;;;;;;;8.00;4.47;;;3.00;99.90;;;;;;5117849;28;20432;-76
2021/01/27 01:53:34;;;;;;;5.50;3.90;;;3.00;99.90;;;;;;5117886;28;20433;-78
2021/01/27 01:56:08;;;;;;;8.60;4.33;;;3.00;99.90;;;;;;5118149;28;20452;-78
2021/01/27 01:58:36;;;;;;;7.33;3.87;;;3.00;99.90;;;;;;5118242;28;20430;-77
2021/01/27 02:01:02;;;;;;;5.57;4.30;;;3.00;99.90;;;;;;5118022;28;20441;-75
2021/01/27 02:03:31;;;;;;;7.00;4.20;;;3.00;99.90;;;;;;5117678;28;20492;-78
2021/01/27 02:06:00;;;;;;;7.50;4.47;;;2.90;99.90;;;;;;5117440;28;20457;-78
2021/01/27 02:08:28;;;;;;;6.07;3.43;;;2.90;99.90;;;;;;5117595;28;20927;-79
2021/01/27 02:10:55;;;;;;;7.23;4.83;;;2.90;99.90;;;;;;5117900;28;20449;-78
2021/01/27 02:13:44;;;;;;;7.90;4.07;;;2.90;99.90;;;;;;5117852;28;20864;-82
2021/01/27 02:16:20;;;;;;;8.00;4.27;;;2.90;99.90;;;;;;5100314;28;20453;-78
2021/01/27 02:19:16;;;;;;;5.87;3.70;;;2.80;99.90;;;;;;5117741;28;20524;-78
2021/01/27 02:25:31;;;;;;;5.50;4.13;;;2.80;99.90;;;;;;5045755;28;20853;-78
2021/01/27 02:28:02;;;;;;;6.10;3.50;;;2.90;99.90;;;;;;5117855;28;20907;-78
2021/01/27 02:30:52;;;;;;;5.30;3.33;;;2.90;99.90;;;;;;5117551;28;20422;-79
2021/01/27 02:34:01;;;;;;;9.00;4.87;;;2.80;99.90;;;;;;5117342;28;20457;-77
2021/01/27 02:36:32;;;;;;;5.87;3.43;;;2.90;99.90;;;;;;5096233;28;20454;-78
2021/01/27 02:39:03;;;;;;;4.97;3.30;;;2.90;99.90;;;;;;5117253;28;20445;-78
2021/01/27 02:41:35;;;;;;;7.00;3.47;;;2.90;99.90;;;;;;5116927;28;20831;-77
2021/01/27 02:44:08;;;;;;;6.37;4.10;;;2.90;99.90;;;;;;5116695;28;20481;-77
2021/01/27 02:46:40;;;;;;;4.90;3.33;;;2.90;99.90;;;;;;5116540;28;20514;-76
2021/01/27 02:49:12;;;;;;;7.23;3.80;;;2.90;99.90;;;;;;5116536;28;20443;-76
2021/01/27 02:51:46;;;;;;;5.87;3.67;;;2.80;99.90;;;;;;5116796;28;20762;-76
2021/01/27 02:54:18;;;;;;;7.37;4.30;;;2.80;99.90;;;;;;5116825;28;20433;-76
2021/01/27 02:56:50;;;;;;;6.03;3.13;;;2.80;99.90;;;;;;5116764;28;20479;-78
2021/01/27 02:59:21;;;;;;;4.77;3.10;;;2.80;99.90;;;;;;5117135;28;20434;-78
2021/01/27 03:01:55;;;;;;;6.17;3.77;;;2.80;99.90;;;;;;5116532;28;20430;-76
2021/01/27 03:04:27;;;;;;;6.30;3.47;;;2.80;99.90;;;;;;5116405;28;20508;-76
2021/01/27 03:06:57;;;;;;;6.13;3.50;;;2.70;99.90;;;;;;5116746;28;20433;-77
2021/01/27 03:09:28;;;;;;;6.50;3.43;;;2.70;99.90;;;;;;5116375;28;20278;-77
2021/01/27 03:11:55;;;;;;;7.20;3.90;;;2.60;99.90;;;;;;5116581;28;20456;-77
2021/01/27 03:14:22;;;;;;;4.70;3.47;;;2.60;99.90;;;;;;5115645;28;20449;-78
2021/01/27 03:16:55;;;;;;;4.03;3.10;;;2.60;99.90;;;;;;5115827;28;20456;-77
2021/01/27 03:19:24;;;;;;;5.07;3.38;;;2.60;99.90;;;;;;5116435;28;20802;-77
2021/01/27 03:21:57;;;;;;;7.80;3.47;;;2.60;99.90;;;;;;5115603;28;20252;-77
2021/01/27 03:24:24;;;;;;;4.03;3.10;;;2.50;99.90;;;;;;5116230;28;20811;-82
2021/01/27 03:26:58;;;;;;;4.30;3.00;;;2.50;99.90;;;;;;5116015;28;20451;-76
2021/01/27 03:29:33;;;;;;;4.13;2.65;;;2.50;99.90;;;;;;5115781;28;20536;-77
2021/01/27 03:32:05;;;;;;;5.37;2.67;;;2.50;99.90;;;;;;5116296;28;20188;-76
2021/01/27 03:34:38;;;;;;;4.57;3.10;;;2.60;99.90;;;;;;5115872;28;20485;-77
2021/01/27 03:37:10;;;;;;;4.10;2.65;;;2.50;99.90;;;;;;5115953;28;20482;-76
2021/01/27 03:39:42;;;;;;;6.63;3.70;;;2.50;99.90;;;;;;5108347;28;20204;-76
2021/01/27 03:42:14;;;;;;;3.90;2.77;;;2.50;99.90;;;;;;5096008;28;20431;-77
2021/01/27 03:44:44;;;;;;;6.95;3.20;;;2.50;99.90;;;;;;5095268;28;20461;-77
2021/01/27 03:47:16;;;;;;;4.57;3.00;;;2.50;99.90;;;;;;5096010;28;20586;-77
2021/01/27 03:49:58;;;;;;;4.20;2.60;;;2.60;99.90;;;;;;5095630;28;20494;-77
2021/01/27 03:52:30;;;;;;;5.60;3.43;;;2.60;99.90;;;;;;5095343;28;20677;-77
2021/01/27 03:55:01;;;;;;;6.00;2.83;;;2.70;99.90;;;;;;5095110;28;20444;-78
2021/01/27 03:57:33;;;;;;;5.63;2.50;;;2.70;99.90;;;;;;5095393;28;20503;-87
2021/01/27 03:59:59;;;;;;;4.57;2.73;;;2.70;99.90;;;;;;5107236;28;20431;-78
2021/01/27 04:02:26;;;;;;;5.93;2.30;;;2.70;99.90;;;;;;5095068;28;20493;-78
2021/01/27 04:04:52;;;;;;;4.77;3.07;;;2.70;99.90;;;;;;5094565;28;20465;-77
2021/01/27 04:07:19;;;;;;;7.40;2.97;;;2.70;99.90;;;;;;5095001;28;20448;-77
2021/01/27 04:09:46;;;;;;;4.63;3.20;;;2.70;99.90;;;;;;5094221;28;20537;-77
2021/01/27 04:12:12;;;;;;;4.80;3.10;;;2.70;99.90;;;;;;5094636;28;20446;-77
2021/01/27 04:14:38;;;;;;;4.83;2.80;;;2.70;99.90;;;;;;5094396;28;20450;-77
2021/01/27 04:17:13;;;;;;;3.83;2.77;;;2.70;99.90;;;;;;5095162;28;20591;-77
2021/01/27 04:19:39;;;;;;;6.23;3.03;;;2.70;99.90;;;;;;5094576;28;20441;-77
2021/01/27 04:22:05;;;;;;;6.90;3.33;;;2.80;99.90;;;;;;5094537;28;20525;-77
2021/01/27 04:24:32;;;;;;;5.27;3.50;;;2.80;99.90;;;;;;5094612;28;20536;-78
2021/01/27 04:26:59;;;;;;;5.07;3.67;;;2.90;99.90;;;;;;5093764;28;20544;-77
2021/01/27 04:29:25;;;;;;;5.83;3.10;;;2.90;99.90;;;;;;5094472;28;20422;-77
2021/01/27 04:31:53;;;;;;;6.00;2.77;;;2.90;99.90;;;;;;5108231;28;20454;-77
2021/01/27 04:34:19;;;;;;;5.10;3.27;;;2.90;99.90;;;;;;5114981;28;20451;-77
2021/01/27 04:36:46;;;;;;;5.33;2.60;;;3.00;99.90;;;;;;5114722;28;20449;-77
2021/01/27 04:39:12;;;;;;;3.47;2.40;;;3.00;99.90;;;;;;5121144;28;20529;-77
2021/01/27 04:41:40;;;;;;;4.50;2.80;;;3.00;99.90;;;;;;5114890;28;20443;-77
2021/01/27 04:44:07;;;;;;;3.37;2.30;;;3.00;99.90;;;;;;5114903;28;20488;-77
2021/01/27 04:46:38;;;;;;;3.70;2.50;;;3.00;99.90;;;;;;5114421;28;20495;-78
2021/01/27 04:49:15;;;;;;;4.10;2.30;;;3.00;99.90;;;;;;5115027;28;20783;-77
2021/01/27 04:51:50;;;;;;;4.40;2.50;;;3.00;99.90;;;;;;5114098;28;20929;-77
2021/01/27 04:54:32;;;;;;;8.20;3.20;;;2.90;99.90;;;;;;5114754;28;20901;-77
2021/01/27 04:57:41;;;;;;;4.00;2.70;;;3.00;99.90;;;;;;5114669;28;20956;-77
2021/01/27 05:00:21;;;;;;;4.60;2.60;;;2.90;99.90;;;;;;5032052;28;20453;-77
2021/01/27 05:03:02;;;;;;;5.83;2.97;;;2.90;99.90;;;;;;5031536;28;20967;-77
2021/01/27 05:05:31;;;;;;;4.83;2.33;;;2.90;99.90;;;;;;5090055;28;20491;-84
2021/01/27 05:08:05;;;;;;;3.23;2.10;;;2.90;99.90;;;;;;5114909;28;20501;-77
2021/01/27 05:10:38;;;;;;;5.07;3.77;;;2.90;99.90;;;;;;5114428;28;20448;-85
2021/01/27 05:13:22;;;;;;;4.83;2.60;;;2.80;99.90;;;;;;5114889;28;20508;-77
2021/01/27 05:15:50;;;;;;;3.43;2.37;;;2.80;99.90;;;;;;5114483;28;20509;-77
2021/01/27 05:18:17;;;;;;;5.17;2.60;;;2.90;99.90;;;;;;5114374;28;20532;-77
2021/01/27 05:20:43;;;;;;;7.87;3.20;;;2.90;99.90;;;;;;5114440;28;20453;-77
2021/01/27 05:23:10;;;;;;;4.53;2.60;;;2.90;99.90;;;;;;5114114;28;20481;-77
2021/01/27 05:25:40;;;;;;;4.53;2.97;;;2.90;99.90;;;;;;5114421;28;20548;-77
2021/01/27 05:28:12;;;;;;;4.03;2.10;;;3.00;99.90;;;;;;5114634;28;20533;-77
2021/01/27 05:30:46;;;;;;;3.57;2.60;;;3.00;99.90;;;;;;5114289;28;20729;-77
2021/01/27 05:33:13;;;;;;;5.60;3.00;;;2.90;99.90;;;;;;5114803;28;20814;-77
2021/01/27 05:35:40;;;;;;;4.77;3.10;;;2.90;99.90;;;;;;5114635;28;20548;-77
2021/01/27 05:38:29;;;;;;;5.97;2.73;;;2.90;99.90;;;;;;5116064;28;20446;-77
2021/01/27 05:41:05;;;;;;;4.60;2.30;;;2.90;99.90;;;;;;5118432;28;20520;-77
2021/01/27 05:43:32;;;;;;;4.80;2.63;;;2.90;99.90;;;;;;5118241;28;20472;-84
2021/01/27 05:46:11;;;;;;;5.20;2.70;;;2.90;99.90;;;;;;5117920;27;20485;-77
2021/01/27 05:48:47;;;;;;;4.33;2.70;;;2.90;99.90;;;;;;5118018;28;20437;-77
2021/01/27 05:51:30;;;;;;;3.97;2.30;;;2.90;99.90;;;;;;5117856;28;20433;-76
2021/01/27 05:53:57;;;;;;;3.90;2.37;;;2.90;99.90;;;;;;5114558;28;20452;-77
2021/01/27 05:56:24;;;;;;;4.30;2.13;;;2.80;99.90;;;;;;5117285;28;20485;-77
2021/01/27 05:58:59;;;;;;;3.40;2.00;;;2.80;99.90;;;;;;5117534;28;20444;-77
2021/01/27 06:01:38;;;;;;;4.30;2.10;;;2.90;99.90;;;;;;5117800;28;20460;-77
2021/01/27 06:04:18;;;;;;;4.60;2.47;;;2.90;99.90;;;;;;5117232;28;20504;-76
2021/01/27 06:06:57;;;;;;;5.73;2.43;;;2.80;99.90;;;;;;5117338;28;20430;-77
2021/01/27 06:09:32;;;;;;;5.53;2.10;;;2.80;99.90;;;;;;5117695;28;20408;-77
2021/01/27 06:12:04;;;;;;;3.03;1.80;;;2.90;99.90;;;;;;5117639;28;20423;-77
2021/01/27 06:14:31;;;;;;;7.40;2.27;;;2.90;99.90;;;;;;5117477;28;20438;-77
2021/01/27 06:16:57;;;;;;;5.30;2.10;;;2.90;99.90;;;;;;5116894;28;20445;-76
2021/01/27 06:19:26;;;;;;;3.43;2.00;;;2.80;99.90;;;;;;5117477;28;20467;-76
2021/01/27 06:22:23;;;;;;;8.00;3.08;;;2.80;99.90;;;;;;5116422;28;20417;-76
2021/01/27 06:25:02;;;;;;;2.73;1.60;;;2.80;99.90;;;;;;5117211;28;20248;-76
2021/01/27 06:28:08;;;;;;;3.40;1.60;;;2.80;99.90;;;;;;5117084;28;20447;-77
2021/01/27 06:30:49;;;;;;;2.60;1.43;;;2.90;99.90;;;;;;5117075;28;20516;-80
2021/01/27 06:33:52;;;;;;;5.90;2.13;;;2.90;99.90;;;;;;5116856;28;20582;-77
2021/01/27 06:36:40;;;;;;;5.63;2.20;;;2.90;99.90;;;;;;5116892;28;20528;-77
2021/01/27 06:39:29;;;;;;;3.23;1.90;;;2.90;99.90;;;;;;5117156;28;20445;-77
2021/01/27 06:42:05;;;;;;;4.37;2.50;;;3.00;99.90;;;;;;5116781;28;20417;-77
2021/01/27 06:44:50;;;;;;;6.03;2.17;;;2.90;99.90;;;;;;5116828;28;20918;-77
2021/01/27 06:47:28;;;;;;;4.10;2.23;;;2.80;99.90;;;;;;5115988;28;20410;-76
2021/01/27 06:50:23;;;;;;;5.40;2.00;;;2.90;99.90;;;;;;5114507;28;20888;-77
2021/01/27 06:53:17;;;;;;;4.40;2.77;;;2.80;99.90;;;;;;5115200;28;20771;-77
2021/01/27 06:55:55;;;;;;;3.00;2.23;;;2.90;99.90;;;;;;5115168;28;20485;-78
2021/01/27 06:58:55;;;;;;;4.87;2.63;;;2.90;99.90;;;;;;5115138;28;20469;-77
2021/01/27 07:01:40;;;;;;;4.07;2.20;;;2.90;99.90;;;;;;5110709;28;20472;-77
2021/01/27 07:04:45;;;;;;;3.60;2.57;;;2.90;99.90;;;;;;5115330;28;20529;-77
2021/01/27 07:07:34;;;;;;;3.60;2.17;;;2.90;99.90;;;;;;5066990;27;20789;-82
2021/01/27 07:10:28;;;;;;;3.10;2.10;;;2.80;99.90;;;;;;5094880;28;20450;-77
2021/01/27 07:13:07;;;;;;;3.50;2.57;;;2.90;99.90;;;;;;5094486;28;20530;-77
2021/01/27 07:16:03;;;;;;;3.40;2.10;;;2.80;99.90;;;;;;5109949;28;20876;-86
2021/01/27 07:19:20;;;;;;;3.57;2.07;;;2.90;99.90;;;;;;5108143;28;20499;-77
2021/01/27 07:21:51;;;;;;;3.00;1.80;;;2.80;99.90;;;;;;5093948;28;20507;-77
2021/01/27 07:24:20;;;;;;;4.97;2.00;;;2.80;99.90;;;;;;5105005;28;20542;-77
2021/01/27 07:26:52;;;;;;;6.25;2.67;;;2.80;99.90;;;;;;5094636;28;20531;-76
2021/01/27 07:29:23;;;;;;;4.97;2.47;;;2.90;99.90;;;;;;5112729;28;20204;-77
2021/01/27 07:31:54;;;;;;;3.50;1.90;;;2.90;99.90;;;;;;5112902;28;20963;-76
2021/01/27 07:34:30;;;;;;;2.37;1.87;;;2.90;99.90;;;;;;5106457;28;20466;-77
2021/01/27 07:37:10;;;;;;;4.47;2.03;;;2.80;99.90;;;;;;5105499;28;20949;-78
2021/01/27 07:39:44;;;;;;;3.90;2.63;;;2.70;99.90;;;;;;5114573;28;20234;-83
2021/01/27 07:42:18;;;;;;;6.67;2.70;;;2.60;99.90;;;;;;5114951;28;20432;-76
2021/01/27 07:44:49;;;;;;;3.53;2.60;;;2.60;99.90;;;;;;5112254;28;20536;-77
2021/01/27 07:47:29;;;;;;;5.07;2.73;;;2.50;99.90;;;;;;5105981;28;20437;-77
2021/01/27 07:49:59;;;;;;;3.30;2.53;;;2.60;99.90;;;;;;5095544;28;20442;-77
2021/01/27 07:52:30;;;;;;;5.13;2.87;;;2.70;99.90;;;;;;5094446;28;20533;-78
2021/01/27 07:55:06;;;;;;;3.60;2.50;;;2.60;99.90;;;;;;5107142;28;20776;-77
2021/01/27 07:57:48;;;;;;;3.83;2.47;;;2.60;99.90;;;;;;5103027;28;20548;-77
2021/01/27 08:00:20;;;;;;;3.58;2.67;;;2.60;99.90;;;;;;5099227;28;20468;-77
2021/01/27 08:03:20;;;;;;;5.33;2.60;;;2.60;99.90;;;;;;5106055;28;20412;-76
2021/01/27 08:05:49;;;;;;;4.22;2.70;;;2.70;99.90;;;;;;5093625;28;20851;-77
2021/01/27 08:08:18;;;;;;;5.47;2.73;;;2.60;99.90;;;;;;5093830;28;20290;-77
2021/01/27 08:10:45;;;;;;;3.80;2.70;;;2.70;99.90;;;;;;5093704;28;20463;-77
2021/01/27 08:13:35;;;;;;;2.80;2.13;;;2.70;99.90;;;;;;5093709;28;20208;-76
2021/01/27 08:16:07;;;;;;;3.50;2.67;;;2.70;99.90;;;;;;5103653;28;20502;-77
2021/01/27 08:18:34;;;;;;;3.60;2.93;;;2.70;99.90;;;;;;5114089;28;20279;-77
2021/01/27 08:21:27;;;;;;;5.10;3.77;;;2.60;99.90;;;;;;5111856;28;20445;-76
2021/01/27 08:23:54;;;;;;;5.60;3.50;;;2.60;99.90;;;;;;5113468;28;20509;-77
2021/01/27 08:26:51;;;;;;;3.50;2.70;;;2.70;99.90;;;;;;5113607;28;20430;-76
2021/01/27 08:29:33;;;;;;;4.23;2.57;;;2.70;99.90;;;;;;5102859;28;20450;-76
2021/01/27 08:32:23;;;;;;;4.63;3.70;;;2.70;99.90;;;;;;5113410;27;20524;-76
2021/01/27 08:34:51;;;;;;;4.50;3.27;;;2.60;99.90;;;;;;5113750;28;20786;-78
2021/01/27 08:37:26;;;;;;;5.27;2.70;;;2.50;99.90;;;;;;5114832;28;20541;-77
2021/01/27 08:40:13;;;;;;;4.90;3.00;;;2.50;99.90;;;;;;5114229;28;20869;-79
2021/01/27 08:42:42;;;;;;;3.97;3.00;;;2.60;99.90;;;;;;5114121;28;20408;-84
2021/01/27 08:45:25;;;;;;;4.30;3.23;;;2.60;99.90;;;;;;5114698;28;20547;-81
2021/01/27 08:47:54;;;;;;;4.20;3.13;;;2.60;99.90;;;;;;5113207;28;20520;-77
2021/01/27 08:50:38;;;;;;;3.70;2.73;;;2.60;99.90;;;;;;5114275;28;20767;-77
2021/01/27 08:53:07;;;;;;;4.27;2.30;;;2.60;99.90;;;;;;5113349;28;20433;-78
2021/01/27 08:55:51;;;;;;;3.97;3.00;;;2.60;99.90;;;;;;5108128;28;20921;-77
2021/01/27 08:58:24;;;;;;;4.60;3.50;;;2.60;99.90;;;;;;5097325;28;20241;-78
2021/01/27 09:00:54;;;;;;;4.17;3.07;;;2.60;99.90;;;;;;5104480;28;20505;-79
2021/01/27 09:03:56;;;;;;;5.07;3.13;;;2.70;99.90;;;;;;5102855;28;20513;-79
2021/01/27 09:06:35;;;;;;;5.38;4.15;;;2.80;99.90;;;;;;5053553;28;20547;-79
2021/01/27 09:09:22;;;;;;;4.23;2.73;;;2.80;99.90;;;;;;5115490;28;20282;-77
2021/01/27 09:11:56;;;;;;;3.90;2.40;;;2.80;99.90;;;;;;5112851;28;20419;-78
2021/01/27 09:14:23;;;;;;;4.50;2.87;;;2.90;99.90;;;;;;5116621;28;20512;-77
2021/01/27 09:16:51;;;;;;;5.40;2.53;;;2.80;99.90;;;;;;5116286;28;20532;-78
2021/01/27 09:19:20;;;;;;;3.67;2.87;;;2.80;99.90;;;;;;5116434;28;20532;-79
2021/01/27 09:22:01;;;;;;;3.70;2.70;;;2.80;99.90;;;;;;5109622;28;20544;-78
2021/01/27 09:24:38;;;;;;;4.50;2.60;;;2.90;99.90;;;;;;5102631;28;20473;-77
2021/01/27 09:27:23;;;;;;;4.90;3.37;;;2.90;99.90;;;;;;5102065;27;20489;-79
2021/01/27 09:29:58;;;;;;;3.40;2.27;;;2.80;99.90;;;;;;5110716;27;20455;-78
2021/01/27 09:32:26;;;;;;;3.97;2.90;;;2.80;99.90;;;;;;5103028;28;20540;-78
2021/01/27 09:34:53;;;;;;;3.23;2.40;;;2.80;99.90;;;;;;5106978;28;21045;-78
2021/01/27 09:37:22;;;;;;;2.90;2.23;;;2.80;99.90;;;;;;5111655;28;20452;-77
2021/01/27 09:39:52;;;;;;;6.00;3.30;;;2.80;99.90;;;;;;5102167;28;20531;-77
2021/01/27 09:42:24;;;;;;;4.23;2.50;;;2.80;99.90;;;;;;5111579;28;20433;-78
2021/01/27 09:44:58;;;;;;;4.13;2.80;;;2.90;99.90;;;;;;5110721;28;20993;-78
2021/01/27 09:47:26;;;;;;;3.65;2.80;;;2.90;99.90;;;;;;5113078;28;20506;-77
2021/01/27 09:49:56;;;;;;;6.33;2.77;;;2.90;99.90;;;;;;5113696;28;20324;-76
2021/01/27 09:52:24;;;;;;;3.93;3.20;;;2.80;99.90;;;;;;5116124;28;20532;-77
2021/01/27 09:54:54;;;;;;;5.73;2.97;;;2.90;99.90;;;;;;5115592;28;20453;-78
2021/01/27 09:57:24;;;;;;;3.43;3.13;;;2.90;99.90;;;;;;5100835;28;20469;-77
2021/01/27 09:59:52;;;;;;;3.90;2.60;;;3.10;99.90;;;;;;5101106;28;20474;-77
2021/01/27 10:02:28;;;;;;;5.03;2.80;;;3.10;99.90;;;;;;5092233;28;20616;-80
2021/01/27 10:04:54;;;;;;;3.17;2.57;;;3.20;99.90;;;;;;5086750;28;20566;-77
2021/01/27 10:07:24;;;;;;;4.00;2.50;;;3.20;99.90;;;;;;5095424;28;20457;-78
2021/01/27 10:09:54;;;;;;;6.47;3.40;;;3.20;99.90;;;;;;5096671;28;20834;-77
2021/01/27 10:12:24;;;;;;;5.47;3.17;;;3.30;99.90;;;;;;5097676;28;20539;-77
2021/01/27 10:14:59;;;;;;;3.20;2.83;;;3.30;99.90;;;;;;5093678;28;20819;-78
2021/01/27 10:17:30;;;;;;;3.67;2.83;;;3.40;99.90;;;;;;5097941;28;20450;-78
2021/01/27 10:20:27;;;;;;;4.00;3.30;;;3.40;99.90;;;;;;5094090;28;20454;-81
2021/01/27 10:22:59;;;;;;;3.00;2.00;;;3.50;99.90;;;;;;5092897;28;20704;-80
2021/01/27 10:25:35;;;;;;;3.63;2.60;;;3.50;99.90;;;;;;5092914;28;20896;-79
2021/01/27 10:28:19;;;;;;;4.70;3.80;;;3.40;99.90;;;;;;5087449;28;20575;-84
2021/01/27 10:30:55;;;;;;;3.90;3.30;;;3.40;99.90;;;;;;5091925;28;20922;-83
2021/01/27 10:33:38;;;;;;;3.93;3.57;;;3.30;99.90;;;;;;5088339;28;20452;-78
2021/01/27 10:36:27;;;;;;;3.30;3.00;;;3.30;99.90;;;;;;5093824;28;20444;-78
2021/01/27 10:39:19;;;;;;;5.53;3.57;;;3.40;99.90;;;;;;5093683;28;20446;-78
2021/01/27 10:41:47;;;;;;;4.60;3.20;;;3.50;99.90;;;;;;5099132;28;20853;-83
2021/01/27 10:44:35;;;;;;;4.37;3.10;;;3.50;99.90;;;;;;5099768;28;20575;-78
2021/01/27 10:47:19;;;;;;;3.17;2.80;;;3.40;99.90;;;;;;5095879;28;20582;-78
2021/01/27 10:49:50;;;;;;;3.10;2.60;;;3.40;99.90;;;;;;5094933;28;20438;-78
2021/01/27 10:52:22;;;;;;;4.83;3.70;;;3.50;99.90;;;;;;5094962;28;20481;-78
2021/01/27 10:54:52;;;;;;;6.13;4.30;;;3.50;99.90;;;;;;5097065;28;20527;-78
2021/01/27 10:57:19;;;;;;;8.50;3.80;;;3.50;99.90;;;;;;5104903;28;20953;-78
2021/01/27 10:59:46;;;;;;;4.73;4.20;;;3.50;99.90;;;;;;5105496;28;20446;-83
2021/01/27 11:02:13;;;;;;;3.30;2.97;;;3.60;99.90;;;;;;5110882;28;20467;-79
2021/01/27 11:04:39;;;;;;;4.60;3.77;;;3.70;99.90;;;;;;5098448;28;20490;-78
2021/01/27 11:07:07;;;;;;;3.80;3.30;;;3.80;99.90;;;;;;5113177;28;20454;-78
2021/01/27 11:09:33;;;;;;;3.60;3.30;;;3.80;99.90;;;;;;5110132;28;20546;-78
2021/01/27 11:11:59;;;;;;;4.40;3.60;;;3.80;99.90;;;;;;5110752;28;20506;-78
2021/01/27 11:14:26;;;;;;;4.20;3.50;;;3.60;99.90;;;;;;5115131;28;20446;-78
2021/01/27 11:16:52;;;;;;;5.03;3.47;;;3.70;99.90;;;;;;5115726;28;20821;-78
2021/01/27 11:19:19;;;;;;;3.90;3.10;;;3.70;99.90;;;;;;5110210;28;20494;-78
2021/01/27 11:21:45;;;;;;;3.33;2.57;;;3.80;99.90;;;;;;5093003;28;20545;-85
2021/01/27 11:24:12;;;;;;;4.10;3.47;;;3.80;99.90;;;;;;5112849;28;20512;-79
2021/01/27 11:26:39;;;;;;;4.63;3.50;;;3.80;99.90;;;;;;5114708;28;20456;-78
2021/01/27 11:29:05;;;;;;;4.80;3.80;;;3.70;99.90;;;;;;5113888;28;20507;-79
2021/01/27 11:31:32;;;;;;;5.13;3.50;;;3.50;99.90;;;;;;5114642;28;21026;-78
2021/01/27 11:33:59;;;;;;;4.27;3.07;;;3.50;99.90;;;;;;5114588;28;20532;-78
2021/01/27 11:36:26;;;;;;;4.47;3.50;;;3.60;99.90;;;;;;5114438;28;20560;-78
2021/01/27 11:38:53;;;;;;;5.93;3.73;;;3.40;99.90;;;;;;5114659;28;20450;-78
2021/01/27 11:41:23;;;;;;;4.47;3.13;;;3.50;99.90;;;;;;5114214;28;20927;-78
2021/01/27 11:43:49;;;;;;;3.63;2.90;;;3.50;99.90;;;;;;5114285;28;20480;-79
2021/01/27 11:46:18;;;;;;;5.77;3.40;;;3.60;99.90;;;;;;5114984;28;20517;-81
2021/01/27 11:48:45;;;;;;;4.27;3.63;;;3.70;99.90;;;;;;5114025;28;20539;-84
2021/01/27 11:51:13;;;;;;;4.40;3.60;;;3.70;99.90;;;;;;5113695;28;20449;-79
2021/01/27 11:53:41;;;;;;;4.30;3.47;;;3.80;99.90;;;;;;5113968;28;20536;-79
2021/01/27 11:56:08;;;;;;;5.07;3.83;;;3.70;99.90;;;;;;5112741;28;20708;-80
2021/01/27 11:58:36;;;;;;;4.37;3.40;;;3.70;99.90;;;;;;5114534;28;20452;-79
2021/01/27 12:01:03;;;;;;;3.83;2.73;;;3.80;99.90;;;;;;5114262;28;20433;-79
2021/01/27 12:03:29;;;;;;;5.07;3.47;;;3.80;99.90;;;;;;5113555;28;20571;-79
2021/01/27 12:05:56;;;;;;;5.20;4.40;;;3.90;99.90;;;;;;5112949;28;20481;-82
2021/01/27 12:08:22;;;;;;;5.03;3.43;;;3.80;99.90;;;;;;5100367;28;20538;-81
2021/01/27 12:10:49;;;;;;;5.10;3.87;;;3.80;99.90;;;;;;5113580;28;20438;-85
2021/01/27 12:13:16;;;;;;;4.40;3.50;;;3.80;99.90;;;;;;5113263;28;20463;-79
2021/01/27 12:15:44;;;;;;;6.23;5.00;;;3.90;99.90;;;;;;5113731;28;20459;-79
2021/01/27 12:18:11;;;;;;;4.13;3.70;;;3.90;99.90;;;;;;5112947;28;20442;-80
2021/01/27 12:20:38;;;;;;;4.00;3.60;;;4.00;99.90;;;;;;5111780;28;20446;-79
2021/01/27 12:23:05;;;;;;;4.63;3.93;;;3.90;99.90;;;;;;5111617;28;20451;-78
2021/01/27 12:25:32;;;;;;;4.20;3.80;;;4.00;99.90;;;;;;5113861;28;20450;-79
2021/01/27 12:27:58;;;;;;;4.73;4.07;;;4.00;99.90;;;;;;5109455;28;20454;-79
2021/01/27 12:30:25;;;;;;;4.43;3.60;;;3.80;99.90;;;;;;5112146;28;20969;-78
2021/01/27 12:32:53;;;;;;;4.53;3.60;;;3.90;99.90;;;;;;5113234;28;20446;-79
2021/01/27 12:35:21;;;;;;;7.10;4.10;;;3.80;99.90;;;;;;5114584;28;20557;-78
2021/01/27 12:37:47;;;;;;;4.53;3.40;;;3.90;99.90;;;;;;5100270;28;20534;-82
2021/01/27 12:40:17;;;;;;;4.80;3.57;;;3.90;99.90;;;;;;5106671;28;20474;-78
2021/01/27 12:42:43;;;;;;;3.30;3.00;;;3.90;99.90;;;;;;5112524;28;20529;-78
2021/01/27 12:45:12;;;;;;;3.97;3.57;;;4.00;99.90;;;;;;5111804;28;21025;-79
2021/01/27 12:47:38;;;;;;;5.17;3.23;;;4.00;99.90;;;;;;5106136;27;20781;-79
2021/01/27 12:50:08;;;;;;;4.20;3.27;;;3.90;99.90;;;;;;5112385;28;20541;-78
2021/01/27 12:52:35;;;;;;;5.23;4.00;;;4.00;99.90;;;;;;5114166;28;20949;-79
2021/01/27 12:55:01;;;;;;;4.30;3.70;;;4.00;99.90;;;;;;5115898;28;20528;-79
2021/01/27 12:57:28;;;;;;;4.07;3.67;;;4.00;99.90;;;;;;5116719;28;20489;-78
2021/01/27 12:59:55;;;;;;;6.40;4.30;;;4.00;99.90;;;;;;5110300;28;20494;-78
2021/01/27 13:02:21;;;;;;;5.13;4.40;;;4.00;99.90;;;;;;5101998;28;20473;-78
2021/01/27 13:04:47;;;;;;;4.83;4.00;;;4.00;99.90;;;;;;5116613;28;20490;-84
2021/01/27 13:07:15;;;;;;;5.67;5.07;;;4.10;99.90;;;;;;5111489;28;20459;-78
2021/01/27 13:09:41;;;;;;;7.43;5.50;;;4.00;99.90;;;;;;5116786;28;20496;-78
2021/01/27 13:12:08;;;;;;;6.50;5.83;;;4.00;99.90;;;;;;5114532;28;20451;-79
2021/01/27 13:14:34;;;;;;;7.50;5.83;;;4.10;99.90;;;;;;5103013;28;20564;-79
2021/01/27 13:17:01;;;;;;;7.80;5.73;;;4.10;99.90;;;;;;5099244;28;20465;-78
2021/01/27 13:19:29;;;;;;;7.90;6.23;;;4.10;99.90;;;;;;5112764;28;20472;-78
2021/01/27 13:21:55;;;;;;;7.10;6.40;;;4.10;99.90;;;;;;5114533;28;20454;-83
2021/01/27 13:24:23;;;;;;;8.20;6.33;;;4.00;99.90;;;;;;5111068;28;20475;-78
2021/01/27 13:26:49;;;;;;;11.40;8.10;;;3.90;99.90;;;;;;5100429;28;20449;-85
2021/01/27 13:29:16;;;;;;;8.50;7.60;;;3.90;99.90;;;;;;5116903;28;20453;-78
2021/01/27 13:31:43;;;;;;;8.57;7.20;;;3.90;99.90;;;;;;5116858;28;20450;-78